sensor_id;sensor_type;location;lat;lon;timestamp;pressure;altitude;pressure_sealevel;temperature;humidity
18323;BME280;9287;49.456;11.064;2023-02-26T00:00:42;97593.97;;;-0.18;100.00
18323;BME280;9287;49.456;11.064;2023-02-26T00:03:10;97592.84;;;-0.17;100.00
18323;BME280;9287;49.456;11.064;2023-02-26T00:05:37;97593.34;;;-0.15;100.00
18323;BME280;9287;49.456;11.064;2023-02-26T00:08:05;97589.97;;;-0.20;100.00
18323;BME280;9287;49.456;11.064;2023-02-26T00:10:33;97602.88;;;-0.22;100.00
18323;BME280;9287;49.456;11.064;2023-02-26T00:13:01;97594.59;;;-0.26;100.00
18323;BME280;9287;49.456;11.064;2023-02-26T00:15:31;97605.84;;;-0.24;100.00
18323;BME280;9287;49.456;11.064;2023-02-26T00:18:04;97606.50;;;-0.32;100.00
18323;BME280;9287;49.456;11.064;2023-02-26T00:20:35;97609.56;;;-0.39;100.00
18323;BME280;9287;49.456;11.064;2023-02-26T00:23:03;97606.66;;;-0.42;100.00
18323;BME280;9287;49.456;11.064;2023-02-26T00:25:31;97619.56;;;-0.44;100.00
18323;BME280;9287;49.456;11.064;2023-02-26T00:27:59;97614.69;;;-0.42;100.00
18323;BME280;9287;49.456;11.064;2023-02-26T00:30:28;97614.41;;;-0.41;100.00
18323;BME280;9287;49.456;11.064;2023-02-26T00:32:57;97616.28;;;-0.41;100.00
18323;BME280;9287;49.456;11.064;2023-02-26T00:35:26;97621.22;;;-0.48;100.00
18323;BME280;9287;49.456;11.064;2023-02-26T00:37:58;97616.66;;;-0.48;100.00
18323;BME280;9287;49.456;11.064;2023-02-26T00:40:34;97613.75;;;-0.51;100.00
18323;BME280;9287;49.456;11.064;2023-02-26T00:43:04;97616.41;;;-0.51;100.00
18323;BME280;9287;49.456;11.064;2023-02-26T00:45:33;97613.25;;;-0.53;100.00
18323;BME280;9287;49.456;11.064;2023-02-26T00:48:37;97613.59;;;-0.60;100.00
18323;BME280;9287;49.456;11.064;2023-02-26T00:51:12;97618.97;;;-0.60;100.00
18323;BME280;9287;49.456;11.064;2023-02-26T00:53:49;97614.06;;;-0.53;100.00
18323;BME280;9287;49.456;11.064;2023-02-26T00:56:18;97610.69;;;-0.63;100.00
18323;BME280;9287;49.456;11.064;2023-02-26T00:58:46;97624.09;;;-0.63;100.00
18323;BME280;9287;49.456;11.064;2023-02-26T01:01:14;97623.88;;;-0.67;100.00
18323;BME280;9287;49.456;11.064;2023-02-26T01:03:43;97622.19;;;-0.82;100.00
18323;BME280;9287;49.456;11.064;2023-02-26T01:06:12;97628.50;;;-0.91;100.00
18323;BME280;9287;49.456;11.064;2023-02-26T01:08:44;97628.50;;;-0.91;100.00
18323;BME280;9287;49.456;11.064;2023-02-26T01:11:14;97618.00;;;-0.88;100.00
18323;BME280;9287;49.456;11.064;2023-02-26T01:13:42;97617.91;;;-0.83;100.00
18323;BME280;9287;49.456;11.064;2023-02-26T01:16:15;97620.81;;;-0.79;100.00
18323;BME280;9287;49.456;11.064;2023-02-26T01:18:49;97622.69;;;-0.80;100.00
18323;BME280;9287;49.456;11.064;2023-02-26T01:21:29;97626.03;;;-0.88;100.00
18323;BME280;9287;49.456;11.064;2023-02-26T01:23:58;97621.94;;;-1.04;100.00
18323;BME280;9287;49.456;11.064;2023-02-26T01:26:28;97632.16;;;-1.06;100.00
18323;BME280;9287;49.456;11.064;2023-02-26T01:28:56;97620.56;;;-1.01;100.00
18323;BME280;9287;49.456;11.064;2023-02-26T01:31:34;97625.06;;;-0.97;100.00
18323;BME280;9287;49.456;11.064;2023-02-26T01:34:13;97626.09;;;-0.93;100.00
18323;BME280;9287;49.456;11.064;2023-02-26T01:36:47;97625.28;;;-0.93;100.00
18323;BME280;9287;49.456;11.064;2023-02-26T01:39:25;97633.75;;;-1.05;100.00
18323;BME280;9287;49.456;11.064;2023-02-26T01:41:57;97629.38;;;-1.01;100.00
18323;BME280;9287;49.456;11.064;2023-02-26T01:44:32;97630.31;;;-1.11;100.00
18323;BME280;9287;49.456;11.064;2023-02-26T01:47:05;97626.88;;;-1.16;100.00
18323;BME280;9287;49.456;11.064;2023-02-26T01:49:38;97628.47;;;-1.15;100.00
18323;BME280;9287;49.456;11.064;2023-02-26T01:55:26;97637.03;;;-1.13;100.00
18323;BME280;9287;49.456;11.064;2023-02-26T01:57:57;97627.91;;;-1.12;100.00
18323;BME280;9287;49.456;11.064;2023-02-26T02:00:26;97639.44;;;-1.12;100.00
18323;BME280;9287;49.456;11.064;2023-02-26T02:02:54;97644.56;;;-1.15;100.00
18323;BME280;9287;49.456;11.064;2023-02-26T02:05:27;97640.84;;;-1.19;100.00
18323;BME280;9287;49.456;11.064;2023-02-26T02:07:57;97651.06;;;-1.21;100.00
18323;BME280;9287;49.456;11.064;2023-02-26T02:10:26;97642.34;;;-1.08;100.00
18323;BME280;9287;49.456;11.064;2023-02-26T02:13:02;97641.59;;;-1.14;100.00
18323;BME280;9287;49.456;11.064;2023-02-26T02:15:38;97642.97;;;-1.16;100.00
18323;BME280;9287;49.456;11.064;2023-02-26T02:18:11;97642.03;;;-1.30;100.00
18323;BME280;9287;49.456;11.064;2023-02-26T02:21:10;97648.53;;;-1.36;100.00
18323;BME280;9287;49.456;11.064;2023-02-26T02:23:47;97649.13;;;-1.39;100.00
18323;BME280;9287;49.456;11.064;2023-02-26T02:26:55;97646.94;;;-1.37;100.00
18323;BME280;9287;49.456;11.064;2023-02-26T02:30:02;97656.63;;;-1.42;100.00
18323;BME280;9287;49.456;11.064;2023-02-26T02:32:37;97651.47;;;-1.38;100.00
18323;BME280;9287;49.456;11.064;2023-02-26T02:35:12;97648.53;;;-1.36;100.00
18323;BME280;9287;49.456;11.064;2023-02-26T02:37:45;97658.44;;;-1.37;100.00
18323;BME280;9287;49.456;11.064;2023-02-26T02:40:16;97665.50;;;-1.46;100.00
18323;BME280;9287;49.456;11.064;2023-02-26T02:42:50;97667.94;;;-1.50;100.00
18323;BME280;9287;49.456;11.064;2023-02-26T02:45:22;97665.75;;;-1.43;100.00
18323;BME280;9287;49.456;11.064;2023-02-26T02:47:58;97664.16;;;-1.44;100.00
18323;BME280;9287;49.456;11.064;2023-02-26T02:50:34;97667.88;;;-1.39;100.00
18323;BME280;9287;49.456;11.064;2023-02-26T02:53:07;97669.16;;;-1.37;100.00
18323;BME280;9287;49.456;11.064;2023-02-26T02:55:37;97676.47;;;-1.43;100.00
18323;BME280;9287;49.456;11.064;2023-02-26T02:58:10;97672.78;;;-1.52;100.00
18323;BME280;9287;49.456;11.064;2023-02-26T03:00:42;97678.09;;;-1.47;100.00
18323;BME280;9287;49.456;11.064;2023-02-26T03:03:16;97672.69;;;-1.42;100.00
18323;BME280;9287;49.456;11.064;2023-02-26T03:05:46;97682.34;;;-1.41;100.00
18323;BME280;9287;49.456;11.064;2023-02-26T03:08:16;97683.97;;;-1.45;100.00
18323;BME280;9287;49.456;11.064;2023-02-26T03:10:47;97681.81;;;-1.43;100.00
18323;BME280;9287;49.456;11.064;2023-02-26T03:13:16;97679.94;;;-1.42;100.00
18323;BME280;9287;49.456;11.064;2023-02-26T03:15:52;97686.63;;;-1.39;100.00
18323;BME280;9287;49.456;11.064;2023-02-26T03:18:31;97683.88;;;-1.34;100.00
18323;BME280;9287;49.456;11.064;2023-02-26T03:21:09;97688.78;;;-1.42;100.00
18323;BME280;9287;49.456;11.064;2023-02-26T03:23:44;97695.00;;;-1.51;100.00
18323;BME280;9287;49.456;11.064;2023-02-26T03:26:14;97701.50;;;-1.57;100.00
18323;BME280;9287;49.456;11.064;2023-02-26T03:28:47;97706.06;;;-1.58;100.00
18323;BME280;9287;49.456;11.064;2023-02-26T03:31:21;97703.41;;;-1.63;100.00
18323;BME280;9287;49.456;11.064;2023-02-26T03:33:58;97719.03;;;-1.75;100.00
18323;BME280;9287;49.456;11.064;2023-02-26T03:36:30;97713.16;;;-1.77;100.00
18323;BME280;9287;49.456;11.064;2023-02-26T03:39:03;97713.63;;;-1.70;100.00
18323;BME280;9287;49.456;11.064;2023-02-26T03:41:36;97714.75;;;-1.76;100.00
18323;BME280;9287;49.456;11.064;2023-02-26T03:44:08;97715.31;;;-1.79;100.00
18323;BME280;9287;49.456;11.064;2023-02-26T03:46:43;97717.47;;;-1.81;100.00
18323;BME280;9287;49.456;11.064;2023-02-26T03:49:19;97724.97;;;-1.83;100.00
18323;BME280;9287;49.456;11.064;2023-02-26T03:51:50;97729.50;;;-1.84;100.00
18323;BME280;9287;49.456;11.064;2023-02-26T03:54:21;97727.66;;;-1.88;100.00
18323;BME280;9287;49.456;11.064;2023-02-26T03:56:51;97730.31;;;-1.83;100.00
18323;BME280;9287;49.456;11.064;2023-02-26T03:59:20;97725.03;;;-1.93;100.00
18323;BME280;9287;49.456;11.064;2023-02-26T04:01:51;97728.44;;;-1.83;100.00
18323;BME280;9287;49.456;11.064;2023-02-26T04:04:26;97738.69;;;-1.95;100.00
18323;BME280;9287;49.456;11.064;2023-02-26T04:06:55;97738.44;;;-1.98;100.00
18323;BME280;9287;49.456;11.064;2023-02-26T04:09:23;97744.34;;;-2.01;100.00
18323;BME280;9287;49.456;11.064;2023-02-26T04:11:52;97746.44;;;-1.93;100.00
18323;BME280;9287;49.456;11.064;2023-02-26T04:14:21;97750.13;;;-1.84;100.00
18323;BME280;9287;49.456;11.064;2023-02-26T04:16:49;97752.22;;;-1.76;100.00
18323;BME280;9287;49.456;11.064;2023-02-26T04:19:17;97754.00;;;-1.61;100.00
18323;BME280;9287;49.456;11.064;2023-02-26T04:21:46;97756.13;;;-1.58;100.00
18323;BME280;9287;49.456;11.064;2023-02-26T04:24:14;97757.75;;;-1.62;100.00
18323;BME280;9287;49.456;11.064;2023-02-26T04:26:42;97761.75;;;-1.60;100.00
18323;BME280;9287;49.456;11.064;2023-02-26T04:29:09;97766.50;;;-1.52;100.00
18323;BME280;9287;49.456;11.064;2023-02-26T04:31:37;97768.72;;;-1.59;100.00
18323;BME280;9287;49.456;11.064;2023-02-26T04:34:05;97768.63;;;-1.49;100.00
18323;BME280;9287;49.456;11.064;2023-02-26T04:36:32;97777.47;;;-1.53;100.00
18323;BME280;9287;49.456;11.064;2023-02-26T04:39:02;97776.13;;;-1.51;100.00
18323;BME280;9287;49.456;11.064;2023-02-26T04:41:29;97774.47;;;-1.42;100.00
18323;BME280;9287;49.456;11.064;2023-02-26T04:43:58;97785.19;;;-1.42;100.00
18323;BME280;9287;49.456;11.064;2023-02-26T04:46:25;97787.34;;;-1.44;100.00
18323;BME280;9287;49.456;11.064;2023-02-26T04:48:54;97788.94;;;-1.43;100.00
18323;BME280;9287;49.456;11.064;2023-02-26T04:51:22;97799.16;;;-1.50;100.00
18323;BME280;9287;49.456;11.064;2023-02-26T04:53:50;97796.34;;;-1.34;100.00
18323;BME280;9287;49.456;11.064;2023-02-26T04:56:19;97794.75;;;-1.35;100.00
18323;BME280;9287;49.456;11.064;2023-02-26T04:58:47;97800.25;;;-1.56;100.00
18323;BME280;9287;49.456;11.064;2023-02-26T05:01:14;97803.97;;;-1.47;100.00
18323;BME280;9287;49.456;11.064;2023-02-26T05:03:42;97803.56;;;-1.30;100.00
18323;BME280;9287;49.456;11.064;2023-02-26T05:06:10;97810.78;;;-1.25;100.00
18323;BME280;9287;49.456;11.064;2023-02-26T05:08:37;97818.25;;;-1.22;100.00
18323;BME280;9287;49.456;11.064;2023-02-26T05:11:07;97820.34;;;-1.19;100.00
18323;BME280;9287;49.456;11.064;2023-02-26T05:13:37;97816.28;;;-1.46;100.00
18323;BME280;9287;49.456;11.064;2023-02-26T05:16:06;97825.28;;;-1.36;100.00
18323;BME280;9287;49.456;11.064;2023-02-26T05:18:34;97823.22;;;-1.45;100.00
18323;BME280;9287;49.456;11.064;2023-02-26T05:21:02;97825.41;;;-1.52;100.00
18323;BME280;9287;49.456;11.064;2023-02-26T05:23:31;97828.59;;;-1.45;100.00
18323;BME280;9287;49.456;11.064;2023-02-26T05:25:59;97824.22;;;-1.35;100.00
18323;BME280;9287;49.456;11.064;2023-02-26T05:28:27;97831.69;;;-1.32;100.00
18323;BME280;9287;49.456;11.064;2023-02-26T05:30:56;97831.81;;;-1.48;100.00
18323;BME280;9287;49.456;11.064;2023-02-26T05:33:25;97838.22;;;-1.44;100.00
18323;BME280;9287;49.456;11.064;2023-02-26T05:35:52;97832.81;;;-1.38;100.00
18323;BME280;9287;49.456;11.064;2023-02-26T05:38:20;97836.09;;;-1.47;100.00
18323;BME280;9287;49.456;11.064;2023-02-26T05:40:48;97830.34;;;-1.30;100.00
18323;BME280;9287;49.456;11.064;2023-02-26T05:43:16;97831.19;;;-1.34;100.00
18323;BME280;9287;49.456;11.064;2023-02-26T05:45:44;97836.47;;;-1.24;100.00
18323;BME280;9287;49.456;11.064;2023-02-26T05:48:13;97840.25;;;-1.25;100.00
18323;BME280;9287;49.456;11.064;2023-02-26T05:50:41;97841.28;;;-1.21;100.00
18323;BME280;9287;49.456;11.064;2023-02-26T05:53:09;97841.34;;;-1.31;100.00
18323;BME280;9287;49.456;11.064;2023-02-26T05:55:37;97844.53;;;-1.29;100.00
18323;BME280;9287;49.456;11.064;2023-02-26T05:58:04;97840.81;;;-1.33;100.00
18323;BME280;9287;49.456;11.064;2023-02-26T06:00:32;97844.75;;;-1.21;100.00
18323;BME280;9287;49.456;11.064;2023-02-26T06:03:00;97847.72;;;-1.22;100.00
18323;BME280;9287;49.456;11.064;2023-02-26T06:05:29;97860.59;;;-1.24;100.00
18323;BME280;9287;49.456;11.064;2023-02-26T06:07:57;97867.84;;;-1.30;100.00
18323;BME280;9287;49.456;11.064;2023-02-26T06:10:25;97859.28;;;-1.32;100.00
18323;BME280;9287;49.456;11.064;2023-02-26T06:12:53;97865.69;;;-1.28;100.00
18323;BME280;9287;49.456;11.064;2023-02-26T06:15:20;97865.97;;;-1.29;100.00
18323;BME280;9287;49.456;11.064;2023-02-26T06:17:48;97863.00;;;-1.23;100.00
18323;BME280;9287;49.456;11.064;2023-02-26T06:20:16;97881.50;;;-1.26;100.00
18323;BME280;9287;49.456;11.064;2023-02-26T06:22:45;97878.28;;;-1.23;100.00
18323;BME280;9287;49.456;11.064;2023-02-26T06:25:13;97886.78;;;-1.16;100.00
18323;BME280;9287;49.456;11.064;2023-02-26T06:27:41;97879.28;;;-1.19;100.00
18323;BME280;9287;49.456;11.064;2023-02-26T06:30:10;97883.94;;;-1.30;100.00
18323;BME280;9287;49.456;11.064;2023-02-26T06:32:38;97886.84;;;-1.21;100.00
18323;BME280;9287;49.456;11.064;2023-02-26T06:35:06;97880.97;;;-1.28;100.00
18323;BME280;9287;49.456;11.064;2023-02-26T06:37:34;97879.91;;;-1.27;100.00
18323;BME280;9287;49.456;11.064;2023-02-26T06:40:04;97894.28;;;-1.18;100.00
18323;BME280;9287;49.456;11.064;2023-02-26T06:42:32;97894.91;;;-1.26;100.00
18323;BME280;9287;49.456;11.064;2023-02-26T06:45:00;97900.19;;;-1.16;100.00
18323;BME280;9287;49.456;11.064;2023-02-26T06:47:28;97907.69;;;-1.18;100.00
18323;BME280;9287;49.456;11.064;2023-02-26T06:49:56;97914.50;;;-0.92;100.00
18323;BME280;9287;49.456;11.064;2023-02-26T06:52:24;97913.06;;;-0.84;100.00
18323;BME280;9287;49.456;11.064;2023-02-26T06:54:51;97922.09;;;-0.70;100.00
18323;BME280;9287;49.456;11.064;2023-02-26T06:57:20;97927.88;;;-0.92;100.00
18323;BME280;9287;49.456;11.064;2023-02-26T06:59:48;97933.09;;;-0.72;100.00
18323;BME280;9287;49.456;11.064;2023-02-26T07:02:19;97939.47;;;-0.67;100.00
18323;BME280;9287;49.456;11.064;2023-02-26T07:04:48;97944.28;;;-0.64;100.00
18323;BME280;9287;49.456;11.064;2023-02-26T07:07:15;97946.38;;;-0.56;100.00
18323;BME280;9287;49.456;11.064;2023-02-26T07:09:43;97951.78;;;-0.61;100.00
18323;BME280;9287;49.456;11.064;2023-02-26T07:12:12;97958.22;;;-0.62;100.00
18323;BME280;9287;49.456;11.064;2023-02-26T07:14:41;97967.91;;;-0.66;100.00
18323;BME280;9287;49.456;11.064;2023-02-26T07:17:10;97974.06;;;-0.66;100.00
18323;BME280;9287;49.456;11.064;2023-02-26T07:19:46;97976.31;;;-0.44;100.00
18323;BME280;9287;49.456;11.064;2023-02-26T07:22:14;97976.44;;;-0.59;100.00
18323;BME280;9287;49.456;11.064;2023-02-26T07:24:42;97983.94;;;-0.56;100.00
18323;BME280;9287;49.456;11.064;2023-02-26T07:27:10;97978.81;;;-0.53;100.00
18323;BME280;9287;49.456;11.064;2023-02-26T07:29:38;97985.44;;;-0.45;100.00
18323;BME280;9287;49.456;11.064;2023-02-26T07:32:07;97996.19;;;-0.50;100.00
18323;BME280;9287;49.456;11.064;2023-02-26T07:34:35;97990.50;;;-0.39;100.00
18323;BME280;9287;49.456;11.064;2023-02-26T07:37:03;97992.31;;;-0.34;100.00
18323;BME280;9287;49.456;11.064;2023-02-26T07:39:30;97995.38;;;-0.17;100.00
18323;BME280;9287;49.456;11.064;2023-02-26T07:41:58;97993.47;;;-0.40;100.00
18323;BME280;9287;49.456;11.064;2023-02-26T07:44:26;98010.59;;;-0.36;100.00
18323;BME280;9287;49.456;11.064;2023-02-26T07:46:53;98010.59;;;-0.36;100.00
18323;BME280;9287;49.456;11.064;2023-02-26T07:49:22;98000.84;;;-0.27;100.00
18323;BME280;9287;49.456;11.064;2023-02-26T07:51:50;98008.53;;;0.14;100.00
18323;BME280;9287;49.456;11.064;2023-02-26T07:54:18;98011.22;;;0.14;100.00
18323;BME280;9287;49.456;11.064;2023-02-26T07:56:46;98012.66;;;0.30;100.00
18323;BME280;9287;49.456;11.064;2023-02-26T07:59:14;98016.75;;;-0.02;100.00
18323;BME280;9287;49.456;11.064;2023-02-26T08:01:41;98019.16;;;0.72;100.00
18323;BME280;9287;49.456;11.064;2023-02-26T08:04:09;98025.63;;;1.13;100.00
18323;BME280;9287;49.456;11.064;2023-02-26T08:06:38;98025.47;;;1.23;100.00
18323;BME280;9287;49.456;11.064;2023-02-26T08:09:06;98026.22;;;1.48;100.00
18323;BME280;9287;49.456;11.064;2023-02-26T08:11:33;98036.13;;;1.52;100.00
18323;BME280;9287;49.456;11.064;2023-02-26T08:14:05;98036.38;;;1.13;100.00
18323;BME280;9287;49.456;11.064;2023-02-26T08:16:33;98045.56;;;1.50;100.00
18323;BME280;9287;49.456;11.064;2023-02-26T08:19:00;98037.56;;;1.45;100.00
18323;BME280;9287;49.456;11.064;2023-02-26T08:21:28;98044.41;;;1.18;100.00
18323;BME280;9287;49.456;11.064;2023-02-26T08:23:57;98047.63;;;0.96;100.00
18323;BME280;9287;49.456;11.064;2023-02-26T08:26:25;98049.53;;;0.72;100.00
18323;BME280;9287;49.456;11.064;2023-02-26T08:28:53;98048.34;;;0.59;100.00
18323;BME280;9287;49.456;11.064;2023-02-26T08:31:21;98053.34;;;0.42;100.00
18323;BME280;9287;49.456;11.064;2023-02-26T08:33:49;98047.06;;;0.76;100.00
18323;BME280;9287;49.456;11.064;2023-02-26T08:36:17;98055.97;;;0.95;100.00
18323;BME280;9287;49.456;11.064;2023-02-26T08:38:44;98049.91;;;1.08;100.00
18323;BME280;9287;49.456;11.064;2023-02-26T08:41:13;98055.16;;;1.18;100.00
18323;BME280;9287;49.456;11.064;2023-02-26T08:43:41;98061.81;;;1.02;100.00
18323;BME280;9287;49.456;11.064;2023-02-26T08:46:09;98076.06;;;1.21;100.00
18323;BME280;9287;49.456;11.064;2023-02-26T08:48:37;98083.66;;;1.19;100.00
18323;BME280;9287;49.456;11.064;2023-02-26T08:51:05;98082.38;;;1.35;100.00
18323;BME280;9287;49.456;11.064;2023-02-26T08:53:32;98091.91;;;0.56;100.00
18323;BME280;9287;49.456;11.064;2023-02-26T08:56:00;98100.50;;;0.82;100.00
18323;BME280;9287;49.456;11.064;2023-02-26T08:58:29;98097.72;;;1.11;99.70
18323;BME280;9287;49.456;11.064;2023-02-26T09:00:57;98094.53;;;1.09;96.12
18323;BME280;9287;49.456;11.064;2023-02-26T09:03:25;98113.00;;;0.92;98.75
18323;BME280;9287;49.456;11.064;2023-02-26T09:05:53;98106.66;;;1.07;100.00
18323;BME280;9287;49.456;11.064;2023-02-26T09:08:21;98109.19;;;0.98;100.00
18323;BME280;9287;49.456;11.064;2023-02-26T09:10:48;98114.44;;;0.60;100.00
18323;BME280;9287;49.456;11.064;2023-02-26T09:13:16;98112.84;;;0.59;100.00
18323;BME280;9287;49.456;11.064;2023-02-26T09:15:47;98123.97;;;0.48;100.00
18323;BME280;9287;49.456;11.064;2023-02-26T09:18:15;98128.22;;;0.78;100.00
18323;BME280;9287;49.456;11.064;2023-02-26T09:20:43;98120.94;;;0.54;100.00
18323;BME280;9287;49.456;11.064;2023-02-26T09:23:11;98125.41;;;0.64;100.00
18323;BME280;9287;49.456;11.064;2023-02-26T09:25:39;98135.59;;;0.91;100.00
18323;BME280;9287;49.456;11.064;2023-02-26T09:28:07;98137.00;;;1.55;96.27
18323;BME280;9287;49.456;11.064;2023-02-26T09:30:34;98128.84;;;2.30;90.73
18323;BME280;9287;49.456;11.064;2023-02-26T09:33:03;98132.53;;;2.53;82.25
18323;BME280;9287;49.456;11.064;2023-02-26T09:35:31;98134.91;;;3.64;74.45
18323;BME280;9287;49.456;11.064;2023-02-26T09:37:59;98143.06;;;4.44;66.44
18323;BME280;9287;49.456;11.064;2023-02-26T09:40:35;98144.22;;;4.07;65.13
18323;BME280;9287;49.456;11.064;2023-02-26T09:46:00;98155.09;;;2.57;69.42
18323;BME280;9287;49.456;11.064;2023-02-26T09:48:31;98149.13;;;2.60;74.54
18323;BME280;9287;49.456;11.064;2023-02-26T09:51:00;98162.28;;;2.61;71.04
18323;BME280;9287;49.456;11.064;2023-02-26T09:53:30;98171.34;;;2.19;73.02
18323;BME280;9287;49.456;11.064;2023-02-26T09:56:04;98167.81;;;2.37;70.71
18323;BME280;9287;49.456;11.064;2023-02-26T09:58:36;98174.75;;;2.25;70.56
18323;BME280;9287;49.456;11.064;2023-02-26T10:01:09;98178.09;;;2.17;73.37
18323;BME280;9287;49.456;11.064;2023-02-26T10:03:52;98170.63;;;1.95;73.89
18323;BME280;9287;49.456;11.064;2023-02-26T10:06:24;98183.19;;;1.62;77.94
18323;BME280;9287;49.456;11.064;2023-02-26T10:09:27;98184.47;;;1.46;71.42
18323;BME280;9287;49.456;11.064;2023-02-26T10:12:01;98190.72;;;1.84;70.97
18323;BME280;9287;49.456;11.064;2023-02-26T10:14:33;98194.19;;;1.42;73.77
18323;BME280;9287;49.456;11.064;2023-02-26T10:17:05;98192.97;;;1.95;71.78
18323;BME280;9287;49.456;11.064;2023-02-26T10:19:37;98197.47;;;2.19;69.93
18323;BME280;9287;49.456;11.064;2023-02-26T10:22:15;98204.31;;;2.30;68.85
18323;BME280;9287;49.456;11.064;2023-02-26T10:24:47;98197.28;;;1.54;71.21
18323;BME280;9287;49.456;11.064;2023-02-26T10:27:22;98207.47;;;1.57;69.09
18323;BME280;9287;49.456;11.064;2023-02-26T10:29:57;98200.38;;;1.66;67.84
18323;BME280;9287;49.456;11.064;2023-02-26T10:32:29;98203.50;;;1.30;69.52
18323;BME280;9287;49.456;11.064;2023-02-26T10:35:03;98210.47;;;1.31;69.75
18323;BME280;9287;49.456;11.064;2023-02-26T10:37:43;98207.94;;;1.16;72.58
18323;BME280;9287;49.456;11.064;2023-02-26T10:40:17;98209.00;;;1.20;72.82
18323;BME280;9287;49.456;11.064;2023-02-26T10:42:47;98212.84;;;1.57;71.50
18323;BME280;9287;49.456;11.064;2023-02-26T10:45:31;98221.91;;;1.66;66.83
18323;BME280;9287;49.456;11.064;2023-02-26T10:48:14;98212.91;;;1.94;63.93
18323;BME280;9287;49.456;11.064;2023-02-26T10:50:50;98210.56;;;2.76;59.77
18323;BME280;9287;49.456;11.064;2023-02-26T10:53:19;98200.75;;;3.40;55.81
18323;BME280;9287;49.456;11.064;2023-02-26T10:55:50;98211.75;;;4.88;54.53
18323;BME280;9287;49.456;11.064;2023-02-26T10:58:23;98210.63;;;5.20;51.65
18323;BME280;9287;49.456;11.064;2023-02-26T11:00:52;98218.91;;;6.03;49.88
18323;BME280;9287;49.456;11.064;2023-02-26T11:03:25;98222.44;;;5.64;50.18
18323;BME280;9287;49.456;11.064;2023-02-26T11:05:57;98217.22;;;4.74;53.66
18323;BME280;9287;49.456;11.064;2023-02-26T11:08:26;98215.09;;;4.04;56.10
18323;BME280;9287;49.456;11.064;2023-02-26T11:10:56;98219.66;;;2.80;60.28
18323;BME280;9287;49.456;11.064;2023-02-26T11:13:26;98215.88;;;2.82;63.32
18323;BME280;9287;49.456;11.064;2023-02-26T11:15:56;98205.25;;;2.71;63.21
18323;BME280;9287;49.456;11.064;2023-02-26T11:18:26;98225.38;;;2.60;64.31
18323;BME280;9287;49.456;11.064;2023-02-26T11:20:59;98226.19;;;2.61;62.76
18323;BME280;9287;49.456;11.064;2023-02-26T11:23:29;98225.06;;;2.10;64.44
18323;BME280;9287;49.456;11.064;2023-02-26T11:26:00;98210.16;;;1.99;64.59
18323;BME280;9287;49.456;11.064;2023-02-26T11:28:34;98226.81;;;2.20;64.76
18323;BME280;9287;49.456;11.064;2023-02-26T11:31:05;98211.91;;;2.93;63.25
18323;BME280;9287;49.456;11.064;2023-02-26T11:33:36;98214.06;;;3.23;61.20
18323;BME280;9287;49.456;11.064;2023-02-26T11:36:08;98206.53;;;3.47;59.85
18323;BME280;9287;49.456;11.064;2023-02-26T11:38:38;98197.09;;;3.86;60.04
18323;BME280;9287;49.456;11.064;2023-02-26T11:41:06;98204.66;;;3.62;58.99
18323;BME280;9287;49.456;11.064;2023-02-26T11:43:38;98198.41;;;4.25;57.06
18323;BME280;9287;49.456;11.064;2023-02-26T11:46:10;98207.31;;;3.89;55.87
18323;BME280;9287;49.456;11.064;2023-02-26T11:48:40;98216.91;;;3.95;56.23
18323;BME280;9287;49.456;11.064;2023-02-26T11:51:14;98212.63;;;3.12;57.21
18323;BME280;9287;49.456;11.064;2023-02-26T11:53:48;98213.31;;;3.86;57.31
18323;BME280;9287;49.456;11.064;2023-02-26T11:56:26;98206.63;;;4.19;54.91
18323;BME280;9287;49.456;11.064;2023-02-26T11:58:58;98188.66;;;4.15;54.47
18323;BME280;9287;49.456;11.064;2023-02-26T12:01:28;98192.94;;;5.14;52.01
18323;BME280;9287;49.456;11.064;2023-02-26T12:03:58;98199.50;;;5.21;52.16
18323;BME280;9287;49.456;11.064;2023-02-26T12:06:29;98197.56;;;4.82;52.74
18323;BME280;9287;49.456;11.064;2023-02-26T12:08:57;98194.72;;;5.18;52.63
18323;BME280;9287;49.456;11.064;2023-02-26T12:11:37;98190.88;;;7.23;49.61
18323;BME280;9287;49.456;11.064;2023-02-26T12:14:20;98200.28;;;6.36;48.18
18323;BME280;9287;49.456;11.064;2023-02-26T12:17:03;98188.94;;;4.36;52.07
18323;BME280;9287;49.456;11.064;2023-02-26T12:19:39;98182.13;;;3.80;54.34
18323;BME280;9287;49.456;11.064;2023-02-26T12:22:24;98191.94;;;2.94;54.52
18323;BME280;9287;49.456;11.064;2023-02-26T12:25:16;98187.94;;;3.19;54.65
18323;BME280;9287;49.456;11.064;2023-02-26T12:31:01;98203.72;;;2.98;56.45
18323;BME280;9287;49.456;11.064;2023-02-26T12:33:40;98189.41;;;2.84;56.38
18323;BME280;9287;49.456;11.064;2023-02-26T12:36:21;98193.50;;;2.95;56.72
18323;BME280;9287;49.456;11.064;2023-02-26T12:39:08;98183.31;;;3.74;55.63
18323;BME280;9287;49.456;11.064;2023-02-26T12:41:47;98206.44;;;3.11;57.44
18323;BME280;9287;49.456;11.064;2023-02-26T12:44:28;98212.59;;;2.52;58.13
18323;BME280;9287;49.456;11.064;2023-02-26T12:47:14;98208.56;;;2.50;58.57
18323;BME280;9287;49.456;11.064;2023-02-26T12:52:57;98214.25;;;2.48;57.99
18323;BME280;9287;49.456;11.064;2023-02-26T12:55:38;98216.47;;;2.27;58.13
18323;BME280;9287;49.456;11.064;2023-02-26T12:58:37;98217.38;;;2.23;58.48
18323;BME280;9287;49.456;11.064;2023-02-26T13:04:39;98208.25;;;2.19;57.53
18323;BME280;9287;49.456;11.064;2023-02-26T13:10:21;98215.75;;;2.40;55.36
18323;BME280;9287;49.456;11.064;2023-02-26T13:13:03;98219.16;;;2.08;56.17
18323;BME280;9287;49.456;11.064;2023-02-26T13:15:47;98224.84;;;2.26;56.23
18323;BME280;9287;49.456;11.064;2023-02-26T13:18:25;98221.25;;;2.82;54.89
18323;BME280;9287;49.456;11.064;2023-02-26T13:20:56;98218.13;;;3.21;53.58
18323;BME280;9287;49.456;11.064;2023-02-26T13:23:29;98220.63;;;3.72;52.83
18323;BME280;9287;49.456;11.064;2023-02-26T13:26:01;98209.75;;;3.49;51.87
18323;BME280;9287;49.456;11.064;2023-02-26T13:28:39;98229.44;;;2.76;52.99
18323;BME280;9287;49.456;11.064;2023-02-26T13:31:12;98228.75;;;2.52;53.76
18323;BME280;9287;49.456;11.064;2023-02-26T13:33:43;98235.84;;;2.80;53.64
18323;BME280;9287;49.456;11.064;2023-02-26T13:36:13;98231.69;;;3.02;53.67
18323;BME280;9287;49.456;11.064;2023-02-26T13:38:52;98243.66;;;2.96;53.95